KMTJ

Montrose Regional Airport

Montrose, Colorado, USA
METAR KMTJ 232221Z AUTO 30017KT 5SM -SN BKN024 OVC035 M02/M06 A2992 RMK AO2 SNB15 P0000 T10171061
Observed Flight Rules
Feb-23 @ 22:21 UTC (17 minutes ago) Marginal Visual Flight Rules
Wind Visibility Clouds Conditions
300° at 17 knots 5 miles
  • Broken at 2,400' AGL
  • Overcast at 3,500' AGL
  • Light Snow
Temperatures Readings Precipitation
Current -2°C / 28°F
Dewpoint -6°C / 21°F
Humidity 74%
Altimeter 29.92" Hg
Pressure 1013 hPa
Elevation 1750
Current Rain 0.005
METAR KMTJ 232221Z AUTO 30017KT 5SM -SN BKN024 OVC035 M02/M06 A2992 RMK AO2 SNB15 P0000 T10171061
Observed Flight Rules
Feb-23 @ 22:21 UTC
(17 minutes ago)
MVFR
Wind Visibility
300° at 17 knots 5 miles
Clouds
  • Broken at 2,400' AGL
  • Overcast at 3,500' AGL
Conditions
  • Light Snow
Temperature Dewpoint
-2°C / 28°F -6°C / 21°F
Humidity Altimeter Pressure
74% 29.92" Hg 1013 hPa
Current Rain
0.005